createdAt,value
2022-11-13T00:01:30.755Z,13.17
2022-11-13T00:03:58.185Z,19.77
2022-11-13T00:06:24.511Z,17.30
2022-11-13T00:08:53.498Z,13.23
2022-11-13T00:11:19.831Z,16.93
2022-11-13T00:13:46.483Z,21.53
2022-11-13T00:16:20.111Z,15.80
2022-11-13T00:18:46.649Z,13.17
2022-11-13T00:21:14.527Z,15.70
2022-11-13T00:23:41.109Z,17.27
2022-11-13T00:26:12.715Z,16.83
2022-11-13T00:28:39.152Z,15.60
2022-11-13T00:31:06.350Z,13.13
2022-11-13T00:34:02.089Z,14.03
2022-11-13T00:36:26.058Z,18.30
2022-11-13T00:38:53.928Z,15.17
2022-11-13T00:41:20.672Z,16.63
2022-11-13T00:43:46.964Z,16.50
2022-11-13T00:46:13.251Z,16.00
2022-11-13T00:48:39.546Z,16.10
2022-11-13T00:51:06.334Z,21.87
2022-11-13T00:53:32.681Z,18.87
2022-11-13T00:56:00.450Z,14.77
2022-11-13T00:58:27.239Z,19.50
2022-11-13T01:00:54.085Z,12.80
2022-11-13T01:03:20.375Z,13.33
2022-11-13T01:05:47.216Z,14.57
2022-11-13T01:08:14.466Z,21.10
2022-11-13T01:10:47.592Z,16.10
2022-11-13T01:13:18.354Z,12.73
2022-11-13T01:15:45.058Z,13.33
2022-11-13T01:18:11.894Z,11.23
2022-11-13T01:20:38.169Z,12.97
2022-11-13T01:23:04.649Z,14.13
2022-11-13T01:25:30.980Z,19.30
2022-11-13T01:27:57.451Z,13.83
2022-11-13T01:30:24.052Z,11.37
2022-11-13T01:32:50.478Z,15.20
2022-11-13T01:35:16.765Z,10.00
2022-11-13T01:37:43.018Z,14.30
2022-11-13T01:40:10.483Z,13.37
2022-11-13T01:42:36.742Z,16.27
2022-11-13T01:45:03.382Z,14.47
2022-11-13T01:47:30.450Z,17.13
2022-11-13T01:49:58.504Z,12.13
2022-11-13T01:52:26.605Z,10.60
2022-11-13T01:54:57.937Z,15.77
2022-11-13T01:57:24.280Z,10.93
2022-11-13T01:59:53.064Z,14.83
2022-11-13T02:02:19.336Z,10.83
2022-11-13T02:04:45.863Z,11.37
2022-11-13T02:07:14.359Z,10.57
2022-11-13T02:09:42.339Z,8.37
2022-11-13T02:12:10.575Z,15.07
2022-11-13T02:14:38.394Z,10.73
2022-11-13T02:17:06.935Z,9.67
2022-11-13T02:19:35.656Z,9.63
2022-11-13T02:22:15.206Z,7.00
2022-11-13T02:24:45.240Z,8.17
2022-11-13T02:27:25.997Z,7.70
2022-11-13T02:29:52.274Z,8.47
2022-11-13T02:32:18.618Z,8.47
2022-11-13T02:34:45.008Z,8.37
2022-11-13T02:37:11.280Z,7.53
2022-11-13T02:39:37.770Z,8.97
2022-11-13T02:42:04.218Z,7.17
2022-11-13T02:44:30.528Z,7.40
2022-11-13T02:46:56.810Z,5.20
2022-11-13T02:49:23.104Z,5.97
2022-11-13T02:51:49.404Z,6.83
2022-11-13T02:54:17.137Z,7.63
2022-11-13T02:56:43.743Z,6.43
2022-11-13T02:59:09.999Z,7.00
2022-11-13T03:01:36.352Z,7.23
2022-11-13T03:04:02.793Z,6.00
2022-11-13T03:06:29.067Z,8.00
2022-11-13T03:08:55.313Z,6.73
2022-11-13T03:11:21.662Z,8.80
2022-11-13T03:13:47.943Z,6.57
2022-11-13T03:16:15.437Z,5.07
2022-11-13T03:18:42.089Z,7.03
2022-11-13T03:21:10.194Z,7.23
2022-11-13T03:23:36.616Z,9.03
2022-11-13T03:26:07.110Z,11.27
2022-11-13T03:28:33.808Z,9.53
2022-11-13T03:31:00.121Z,12.30
2022-11-13T03:33:26.543Z,9.67
2022-11-13T03:35:52.842Z,8.83
2022-11-13T03:38:19.127Z,6.70
2022-11-13T03:40:45.424Z,8.47
2022-11-13T03:43:11.698Z,7.30
2022-11-13T03:45:38.033Z,8.07
2022-11-13T03:48:04.521Z,7.47
2022-11-13T03:50:30.829Z,6.93
2022-11-13T03:52:57.251Z,9.50
2022-11-13T03:55:23.528Z,8.70
2022-11-13T03:57:49.807Z,8.47
2022-11-13T04:00:16.365Z,7.83
2022-11-13T04:02:42.662Z,7.17
2022-11-13T04:05:09.092Z,10.03
2022-11-13T04:07:35.371Z,5.97
2022-11-13T04:10:01.638Z,7.80
2022-11-13T04:12:27.979Z,9.00
2022-11-13T04:14:54.302Z,6.07
2022-11-13T04:17:20.554Z,6.83
2022-11-13T04:19:46.808Z,6.30
2022-11-13T04:22:13.087Z,6.10
2022-11-13T04:24:39.370Z,5.23
2022-11-13T04:27:05.648Z,14.57
2022-11-13T04:29:31.902Z,6.13
2022-11-13T04:31:58.170Z,8.30
2022-11-13T04:34:24.453Z,7.23
2022-11-13T04:36:50.751Z,5.57
2022-11-13T04:39:17.042Z,8.50
2022-11-13T04:42:01.887Z,5.27
2022-11-13T04:44:28.219Z,6.32
2022-11-13T04:46:54.491Z,9.53
2022-11-13T04:49:20.762Z,5.47
2022-11-13T04:51:47.013Z,7.27
2022-11-13T04:54:13.286Z,10.33
2022-11-13T04:56:39.556Z,10.50
2022-11-13T04:59:05.858Z,8.30
2022-11-13T05:01:32.201Z,7.70
2022-11-13T05:03:58.513Z,9.33
2022-11-13T05:06:24.773Z,5.80
2022-11-13T05:08:51.103Z,10.30
2022-11-13T05:11:17.381Z,7.80
2022-11-13T05:13:43.643Z,5.70
2022-11-13T05:16:11.194Z,6.50
2022-11-13T05:18:38.275Z,6.57
2022-11-13T05:21:05.520Z,7.43
2022-11-13T05:23:32.265Z,5.47
2022-11-13T05:26:02.683Z,5.70
2022-11-13T05:28:29.257Z,5.70
2022-11-13T05:31:02.810Z,5.70
2022-11-13T05:33:29.085Z,6.23
2022-11-13T05:35:55.354Z,7.60
2022-11-13T05:38:21.656Z,5.47
2022-11-13T05:40:47.943Z,7.47
2022-11-13T05:43:14.291Z,6.63
2022-11-13T05:45:40.548Z,8.33
2022-11-13T05:48:06.794Z,6.77
2022-11-13T05:50:33.050Z,8.93
2022-11-13T05:52:59.310Z,5.67
2022-11-13T05:55:25.583Z,6.17
2022-11-13T05:57:51.837Z,5.67
2022-11-13T06:00:18.371Z,6.27
2022-11-13T06:02:44.665Z,8.00
2022-11-13T06:05:10.941Z,5.57
2022-11-13T06:07:37.181Z,4.87
2022-11-13T06:10:03.598Z,9.03
2022-11-13T06:12:31.017Z,8.60
2022-11-13T06:14:57.300Z,10.80
2022-11-13T06:17:23.594Z,8.73
2022-11-13T06:19:49.869Z,9.23
2022-11-13T06:22:16.217Z,9.67
2022-11-13T06:24:42.474Z,7.43
2022-11-13T06:27:08.778Z,7.23
2022-11-13T06:29:35.026Z,6.90
2022-11-13T06:32:01.282Z,4.50
2022-11-13T06:34:27.533Z,8.30
2022-11-13T06:36:53.810Z,7.47
2022-11-13T06:39:20.187Z,7.90
2022-11-13T06:41:46.510Z,4.27
2022-11-13T06:44:12.778Z,5.80
2022-11-13T06:46:39.036Z,4.83
2022-11-13T06:49:05.311Z,4.87
2022-11-13T06:51:31.635Z,7.50
2022-11-13T06:53:58.268Z,5.07
2022-11-13T06:56:25.002Z,5.00
2022-11-13T06:58:51.337Z,4.17
2022-11-13T07:01:18.979Z,4.80
2022-11-13T07:03:45.301Z,6.23
2022-11-13T07:06:13.996Z,4.03
2022-11-13T07:08:43.373Z,8.97
2022-11-13T07:11:10.526Z,6.23
2022-11-13T07:13:37.855Z,4.70
2022-11-13T07:16:15.913Z,4.37
2022-11-13T07:18:43.720Z,4.33
2022-11-13T07:21:11.097Z,4.23
2022-11-13T07:23:40.744Z,9.53
2022-11-13T07:26:06.997Z,5.53
2022-11-13T07:28:33.258Z,7.33
2022-11-13T07:31:00.100Z,7.50
2022-11-13T07:33:26.398Z,3.77
2022-11-13T07:35:53.408Z,5.63
2022-11-13T07:38:19.746Z,3.90
2022-11-13T07:40:46.000Z,14.27
2022-11-13T07:43:12.257Z,4.30
2022-11-13T07:45:38.527Z,3.93
2022-11-13T07:48:05.084Z,7.63
2022-11-13T07:50:32.704Z,5.33
2022-11-13T07:53:00.014Z,4.77
2022-11-13T07:55:26.952Z,5.03
2022-11-13T07:57:57.869Z,4.30
2022-11-13T08:00:25.022Z,5.07
2022-11-13T08:02:51.411Z,4.30
2022-11-13T08:05:18.074Z,4.80
2022-11-13T08:07:51.071Z,4.77
2022-11-13T08:10:18.339Z,4.63
2022-11-13T08:12:45.063Z,5.47
2022-11-13T08:15:13.584Z,6.70
2022-11-13T08:17:40.088Z,5.83
2022-11-13T08:20:06.782Z,7.13
2022-11-13T08:22:33.273Z,8.53
2022-11-13T08:24:59.558Z,6.03
2022-11-13T08:27:25.871Z,9.57
2022-11-13T08:29:52.766Z,7.60
2022-11-13T08:32:19.441Z,8.63
2022-11-13T08:34:45.718Z,6.77
2022-11-13T08:37:12.038Z,7.70
2022-11-13T08:39:38.318Z,5.43
2022-11-13T08:42:04.855Z,7.23
2022-11-13T08:44:31.766Z,6.40
2022-11-13T08:46:58.350Z,7.47
2022-11-13T08:49:24.669Z,7.57
2022-11-13T08:51:50.953Z,6.10
2022-11-13T08:54:17.718Z,7.40
2022-11-13T08:56:43.996Z,7.73
2022-11-13T08:59:10.727Z,9.17
2022-11-13T09:01:36.986Z,8.87
2022-11-13T09:04:03.663Z,6.77
2022-11-13T09:06:30.061Z,8.60
2022-11-13T09:08:56.585Z,5.80
2022-11-13T09:11:22.889Z,15.27
2022-11-13T09:13:53.103Z,11.77
2022-11-13T09:16:20.092Z,10.57
2022-11-13T09:18:49.075Z,10.70
2022-11-13T09:21:15.351Z,12.00
2022-11-13T09:23:41.656Z,8.18
2022-11-13T09:26:07.966Z,16.38
2022-11-13T09:28:34.288Z,12.68
2022-11-13T09:31:03.510Z,11.13
2022-11-13T09:33:29.790Z,8.68
2022-11-13T09:35:56.037Z,6.82
2022-11-13T09:38:22.584Z,8.95
2022-11-13T09:40:54.621Z,7.30
2022-11-13T09:43:23.805Z,10.00
2022-11-13T09:45:51.741Z,10.80
2022-11-13T09:48:29.191Z,8.13
2022-11-13T09:50:56.382Z,8.90
2022-11-13T09:53:22.937Z,8.90
2022-11-13T09:56:03.325Z,7.85
2022-11-13T09:58:40.422Z,7.63
2022-11-13T10:01:14.999Z,8.30
2022-11-13T10:04:00.535Z,8.23
2022-11-13T10:06:28.835Z,6.50
2022-11-13T10:09:11.826Z,7.00
2022-11-13T10:11:38.282Z,7.03
2022-11-13T10:14:09.259Z,6.90
2022-11-13T10:16:39.025Z,7.72
2022-11-13T10:19:09.018Z,9.93
2022-11-13T10:21:39.620Z,7.10
2022-11-13T10:24:17.501Z,8.15
2022-11-13T10:26:43.762Z,9.13
2022-11-13T10:29:12.297Z,7.65
2022-11-13T10:31:45.634Z,6.68
2022-11-13T10:34:12.311Z,6.47
2022-11-13T10:36:51.943Z,7.78
2022-11-13T10:39:18.275Z,6.05
2022-11-13T10:41:48.221Z,8.45
2022-11-13T10:44:26.438Z,8.30
2022-11-13T10:47:03.640Z,9.23
2022-11-13T10:49:29.925Z,8.23
2022-11-13T10:51:57.037Z,5.57
2022-11-13T10:54:24.970Z,5.03
2022-11-13T10:56:58.368Z,6.47
2022-11-13T10:59:25.494Z,7.45
2022-11-13T11:01:51.903Z,7.78
2022-11-13T11:04:27.511Z,7.35
2022-11-13T11:07:18.998Z,7.72
2022-11-13T11:09:41.126Z,6.95
2022-11-13T11:12:19.082Z,6.80
2022-11-13T11:14:45.462Z,6.20
2022-11-13T11:17:13.062Z,7.18
2022-11-13T11:19:40.653Z,7.50
2022-11-13T11:22:11.040Z,6.28
2022-11-13T11:24:40.283Z,6.20
2022-11-13T11:27:26.842Z,8.18
2022-11-13T11:30:02.270Z,7.65
2022-11-13T11:32:31.597Z,7.90
2022-11-13T11:35:13.949Z,8.77
2022-11-13T11:37:46.946Z,6.35
2022-11-13T11:40:19.237Z,8.35
2022-11-13T11:42:51.843Z,8.27
2022-11-13T11:45:25.407Z,7.47
2022-11-13T11:47:53.362Z,8.70
2022-11-13T11:50:40.965Z,9.63
2022-11-13T11:53:22.571Z,10.20
2022-11-13T11:56:01.325Z,6.25
2022-11-13T11:58:46.625Z,5.38
2022-11-13T12:01:35.158Z,7.78
2022-11-13T12:04:07.997Z,7.63
2022-11-13T12:06:53.008Z,5.38
2022-11-13T12:09:24.702Z,6.80
2022-11-13T12:12:01.130Z,5.63
2022-11-13T12:14:42.876Z,6.15
2022-11-13T12:17:32.306Z,5.60
2022-11-13T12:20:09.232Z,8.10
2022-11-13T12:22:43.572Z,6.38
2022-11-13T12:25:15.768Z,9.20
2022-11-13T12:27:42.126Z,5.78
2022-11-13T12:30:13.966Z,5.80
2022-11-13T12:32:49.037Z,5.05
2022-11-13T12:35:19.552Z,8.63
2022-11-13T12:38:04.505Z,5.82
2022-11-13T12:40:33.760Z,8.10
2022-11-13T12:43:11.981Z,7.18
2022-11-13T12:45:38.314Z,6.20
2022-11-13T12:48:16.898Z,4.93
2022-11-13T12:50:43.534Z,6.60
2022-11-13T12:53:11.246Z,6.47
2022-11-13T12:55:39.611Z,5.82
2022-11-13T12:58:20.094Z,6.22
2022-11-13T13:00:54.931Z,7.88
2022-11-13T13:03:31.816Z,5.93
2022-11-13T13:06:12.732Z,5.97
2022-11-13T13:08:54.177Z,5.40
2022-11-13T13:11:39.367Z,5.95
2022-11-13T13:14:24.343Z,5.18
2022-11-13T13:16:50.689Z,5.25
2022-11-13T13:19:28.355Z,7.00
2022-11-13T13:21:55.364Z,5.70
2022-11-13T13:24:27.905Z,8.88
2022-11-13T13:26:54.537Z,7.25
2022-11-13T13:29:24.997Z,11.52
2022-11-13T13:32:11.565Z,7.03
2022-11-13T13:34:57.974Z,5.45
2022-11-13T13:37:43.112Z,6.47
2022-11-13T13:40:28.268Z,5.28
2022-11-13T13:43:13.333Z,3.83
2022-11-13T13:45:52.573Z,3.88
2022-11-13T13:48:21.099Z,4.82
2022-11-13T13:50:48.462Z,4.78
2022-11-13T13:53:16.946Z,4.20
2022-11-13T13:55:51.307Z,4.55
2022-11-13T13:58:23.048Z,4.00
2022-11-13T14:01:17.659Z,4.43
2022-11-13T14:03:45.034Z,4.00
2022-11-13T14:06:29.516Z,5.28
2022-11-13T14:08:55.807Z,6.35
2022-11-13T14:11:26.875Z,4.47
2022-11-13T14:13:53.212Z,3.70
2022-11-13T14:16:19.465Z,3.83
2022-11-13T14:18:45.778Z,3.55
2022-11-13T14:21:16.029Z,3.08
2022-11-13T14:23:48.674Z,5.15
2022-11-13T14:26:15.295Z,5.43
2022-11-13T14:29:00.755Z,4.35
2022-11-13T14:31:31.516Z,7.05
2022-11-13T14:33:59.881Z,5.60
2022-11-13T14:36:27.611Z,5.10
2022-11-13T14:38:53.994Z,4.63
2022-11-13T14:41:37.082Z,4.45
2022-11-13T14:44:03.478Z,5.40
2022-11-13T14:46:31.435Z,10.10
2022-11-13T14:48:57.782Z,5.20
2022-11-13T14:51:25.742Z,7.30
2022-11-13T14:54:06.241Z,8.40
2022-11-13T14:56:39.058Z,6.88
2022-11-13T14:59:09.644Z,8.77
2022-11-13T15:01:36.027Z,6.90
2022-11-13T15:04:02.496Z,7.40
2022-11-13T15:06:35.306Z,6.40
2022-11-13T15:09:01.720Z,7.07
2022-11-13T15:11:28.007Z,7.60
2022-11-13T15:13:54.319Z,6.80
2022-11-13T15:16:23.412Z,7.75
2022-11-13T15:18:51.691Z,4.75
2022-11-13T15:21:18.494Z,8.60
2022-11-13T15:23:44.810Z,7.18
2022-11-13T15:26:11.787Z,8.18
2022-11-13T15:28:38.189Z,7.88
2022-11-13T15:31:15.051Z,7.38
2022-11-13T15:33:41.323Z,7.95
2022-11-13T15:36:08.736Z,7.05
2022-11-13T15:38:34.998Z,6.30
2022-11-13T15:41:01.276Z,7.65
2022-11-13T15:43:27.975Z,8.50
2022-11-13T15:45:54.418Z,7.05
2022-11-13T15:48:20.732Z,7.47
2022-11-13T15:50:47.088Z,5.97
2022-11-13T15:53:13.373Z,5.63
2022-11-13T15:55:40.785Z,7.40
2022-11-13T15:58:11.513Z,7.28
2022-11-13T16:00:42.508Z,7.20
2022-11-13T16:03:11.776Z,5.47
2022-11-13T16:05:38.430Z,8.27
2022-11-13T16:08:11.036Z,6.97
2022-11-13T16:10:37.288Z,6.90
2022-11-13T16:13:03.552Z,5.60
2022-11-13T16:15:29.933Z,6.63
2022-11-13T16:17:57.193Z,7.88
2022-11-13T16:20:23.869Z,8.95
2022-11-13T16:22:50.309Z,9.38
2022-11-13T16:25:17.683Z,11.32
2022-11-13T16:27:44.226Z,11.38
2022-11-13T16:30:21.431Z,5.95
2022-11-13T16:32:48.168Z,4.88
2022-11-13T16:35:15.215Z,7.57
2022-11-13T16:37:41.657Z,6.50
2022-11-13T16:40:26.838Z,7.50
2022-11-13T16:42:53.558Z,9.82
2022-11-13T16:45:20.674Z,9.70
2022-11-13T16:47:47.132Z,8.18
2022-11-13T16:50:18.611Z,5.50
2022-11-13T16:52:44.932Z,5.63
2022-11-13T16:55:11.221Z,6.45
2022-11-13T16:57:37.972Z,9.35
2022-11-13T17:00:05.984Z,8.45
2022-11-13T17:02:32.261Z,9.60
2022-11-13T17:04:58.518Z,6.43
2022-11-13T17:07:24.867Z,9.25
2022-11-13T17:10:10.007Z,5.72
2022-11-13T17:12:37.366Z,8.23
2022-11-13T17:15:03.728Z,7.53
2022-11-13T17:17:30.001Z,6.32
2022-11-13T17:19:56.260Z,8.15
2022-11-13T17:22:22.606Z,9.88
2022-11-13T17:24:50.248Z,6.07
2022-11-13T17:27:16.971Z,6.97
2022-11-13T17:29:43.233Z,8.05
2022-11-13T17:32:09.639Z,7.07
2022-11-13T17:34:36.666Z,9.40
2022-11-13T17:37:02.927Z,8.90
2022-11-13T17:39:29.279Z,11.60
2022-11-13T17:41:55.635Z,8.63
2022-11-13T17:44:21.873Z,7.88
2022-11-13T17:46:48.309Z,7.30
2022-11-13T17:49:16.340Z,8.75
2022-11-13T17:51:42.590Z,4.85
2022-11-13T17:54:08.878Z,6.25
2022-11-13T17:56:37.581Z,7.00
2022-11-13T17:59:04.307Z,8.85
2022-11-13T18:01:33.908Z,5.43
2022-11-13T18:04:00.398Z,9.10
2022-11-13T18:06:26.654Z,7.87
2022-11-13T18:08:52.977Z,7.47
2022-11-13T18:11:20.732Z,9.60
2022-11-13T18:13:47.835Z,8.15
2022-11-13T18:16:15.666Z,8.07
2022-11-13T18:18:42.101Z,8.83
2022-11-13T18:21:22.479Z,11.80
2022-11-13T18:23:49.698Z,10.07
2022-11-13T18:26:17.283Z,10.70
2022-11-13T18:28:43.801Z,9.47
2022-11-13T18:31:14.246Z,9.67
2022-11-13T18:33:40.489Z,9.20
2022-11-13T18:36:07.206Z,9.63
2022-11-13T18:38:33.550Z,13.63
2022-11-13T18:41:00.642Z,10.53
2022-11-13T18:43:27.309Z,17.53
2022-11-13T18:45:57.586Z,11.50
2022-11-13T18:48:23.854Z,7.40
2022-11-13T18:51:00.549Z,9.93
2022-11-13T18:53:27.508Z,14.33
2022-11-13T18:55:58.523Z,23.80
2022-11-13T18:58:24.802Z,9.37
2022-11-13T19:00:51.058Z,9.60
2022-11-13T19:03:17.752Z,15.60
2022-11-13T19:05:44.809Z,13.73
2022-11-13T19:08:11.174Z,13.10
2022-11-13T19:10:37.453Z,11.23
2022-11-13T19:13:03.786Z,16.70
2022-11-13T19:15:30.157Z,9.47
2022-11-13T19:17:56.411Z,12.67
2022-11-13T19:20:22.844Z,10.97
2022-11-13T19:22:49.154Z,11.20
2022-11-13T19:25:15.448Z,12.07
2022-11-13T19:27:41.701Z,8.80
2022-11-13T19:30:08.153Z,10.77
2022-11-13T19:32:34.468Z,11.60
2022-11-13T19:35:00.747Z,10.07
2022-11-13T19:37:27.020Z,10.60
2022-11-13T19:39:53.286Z,10.83
2022-11-13T19:42:19.569Z,11.07
2022-11-13T19:44:45.838Z,11.77
2022-11-13T19:47:12.210Z,12.37
2022-11-13T19:49:39.682Z,10.10
2022-11-13T19:52:06.495Z,9.13
2022-11-13T19:54:32.769Z,18.23
2022-11-13T19:56:59.022Z,11.00
2022-11-13T19:59:25.309Z,16.20
2022-11-13T20:01:51.719Z,10.83
2022-11-13T20:04:18.053Z,15.60
2022-11-13T20:06:44.407Z,16.63
2022-11-13T20:09:10.935Z,13.53
2022-11-13T20:11:37.655Z,15.87
2022-11-13T20:14:03.980Z,14.30
2022-11-13T20:16:30.332Z,11.87
2022-11-13T20:18:56.876Z,11.83
2022-11-13T20:21:26.719Z,11.33
2022-11-13T20:23:55.136Z,14.90
2022-11-13T20:26:21.433Z,15.47
2022-11-13T20:28:47.697Z,12.07
2022-11-13T20:31:17.577Z,12.63
2022-11-13T20:33:43.856Z,11.90
2022-11-13T20:36:10.139Z,10.90
2022-11-13T20:38:37.384Z,13.67
2022-11-13T20:41:08.207Z,9.70
2022-11-13T20:43:34.537Z,8.70
2022-11-13T20:46:11.709Z,9.03
2022-11-13T20:48:38.286Z,13.03
2022-11-13T20:51:12.016Z,10.50
2022-11-13T20:53:38.686Z,10.03
2022-11-13T20:56:05.407Z,16.80
2022-11-13T20:58:32.016Z,11.23
2022-11-13T21:01:09.617Z,16.37
2022-11-13T21:03:41.411Z,14.77
2022-11-13T21:06:08.949Z,10.80
2022-11-13T21:08:35.673Z,11.67
2022-11-13T21:11:02.849Z,10.40
2022-11-13T21:13:29.303Z,12.43
2022-11-13T21:15:55.571Z,10.93
2022-11-13T21:18:21.929Z,10.90
2022-11-13T21:20:48.277Z,9.50
2022-11-13T21:23:14.618Z,10.57
2022-11-13T21:25:40.892Z,15.07
2022-11-13T21:28:07.227Z,12.73
2022-11-13T21:30:33.715Z,9.80
2022-11-13T21:33:00.246Z,11.27
2022-11-13T21:35:27.532Z,11.57
2022-11-13T21:37:53.849Z,12.27
2022-11-13T21:40:20.267Z,10.50
2022-11-13T21:42:46.571Z,13.10
2022-11-13T21:45:12.888Z,13.90
2022-11-13T21:47:39.187Z,11.40
2022-11-13T21:50:05.645Z,12.63
2022-11-13T21:52:31.940Z,9.30
2022-11-13T21:54:58.195Z,12.00
2022-11-13T21:57:24.713Z,10.90
2022-11-13T21:59:51.055Z,13.03
2022-11-13T22:02:17.360Z,13.67
2022-11-13T22:04:43.684Z,12.97
2022-11-13T22:07:10.044Z,11.83
2022-11-13T22:09:37.492Z,17.43
2022-11-13T22:12:04.061Z,11.10
2022-11-13T22:14:30.310Z,13.67
2022-11-13T22:16:56.569Z,11.40
2022-11-13T22:19:27.688Z,14.87
2022-11-13T22:21:55.579Z,12.77
2022-11-13T22:24:21.915Z,16.13
2022-11-13T22:26:48.443Z,11.23
2022-11-13T22:29:14.739Z,12.50
2022-11-13T22:31:41.059Z,12.73
2022-11-13T22:34:07.358Z,14.00
2022-11-13T22:36:35.224Z,10.50
2022-11-13T22:39:01.826Z,12.87
2022-11-13T22:41:30.704Z,11.93
2022-11-13T22:43:59.690Z,11.10
2022-11-13T22:46:27.658Z,9.50
2022-11-13T22:48:54.718Z,14.40
2022-11-13T22:51:22.222Z,11.30
2022-11-13T22:53:49.908Z,9.37
2022-11-13T22:56:16.896Z,9.63
2022-11-13T22:58:43.220Z,9.57
2022-11-13T23:01:12.962Z,10.67
2022-11-13T23:03:40.551Z,10.40
2022-11-13T23:06:07.792Z,11.37
2022-11-13T23:08:38.656Z,10.33
2022-11-13T23:11:09.953Z,10.67
2022-11-13T23:13:36.238Z,11.73
2022-11-13T23:16:02.739Z,8.13
2022-11-13T23:18:32.348Z,10.60
2022-11-13T23:20:58.813Z,7.50
2022-11-13T23:23:25.106Z,8.30
2022-11-13T23:25:51.410Z,8.83
2022-11-13T23:28:17.658Z,10.97
2022-11-13T23:30:43.977Z,9.87
2022-11-13T23:33:10.358Z,10.07
2022-11-13T23:35:36.640Z,10.60
2022-11-13T23:38:02.921Z,9.60
2022-11-13T23:40:29.178Z,11.83
2022-11-13T23:42:55.937Z,11.27
2022-11-13T23:45:22.318Z,11.23
2022-11-13T23:47:48.598Z,8.80
2022-11-13T23:50:15.011Z,8.30
2022-11-13T23:52:41.302Z,12.93
2022-11-13T23:55:07.803Z,9.03
2022-11-13T23:57:34.072Z,12.23
